Time;durP1;ratioP1;P1;durP2;ratioP2;P2;SDS_P1;SDS_P2;PMS_P1;PMS_P2;Temp;Humidity;BMP_temperature;BMP_pressure;BME280_temperature;BME280_humidity;BME280_pressure;Samples;Min_cycle;Max_cycle;Signal;HPM_P1;HPM_P2
2022/09/10 00:00:42;;;;;;;6.35;1.80;;;14.60;99.90;;;;;;5103459;28;20035;-57
2022/09/10 00:03:09;;;;;;;4.63;1.95;;;14.60;99.90;;;;;;5106272;28;20024;-55
2022/09/10 00:05:42;;;;;;;4.60;1.80;;;14.60;99.90;;;;;;5107668;28;20034;-58
2022/09/10 00:08:09;;;;;;;9.75;2.47;;;14.60;99.90;;;;;;5101989;28;20110;-55
2022/09/10 00:10:43;;;;;;;5.70;1.92;;;14.50;99.90;;;;;;5108005;28;20496;-55
2022/09/10 00:13:09;;;;;;;;;;;14.50;99.90;;;;;;5103384;28;20117;-56
2022/09/10 00:15:44;;;;;;;5.53;2.38;;;14.40;99.90;;;;;;5105853;28;20002;-58
2022/09/10 00:18:10;;;;;;;7.43;2.30;;;14.50;99.90;;;;;;5103034;28;20516;-56
2022/09/10 00:20:46;;;;;;;10.30;2.20;;;14.50;99.90;;;;;;5106045;28;20080;-56
2022/09/10 00:23:16;;;;;;;8.82;2.50;;;14.50;99.90;;;;;;5106200;28;20108;-56
2022/09/10 00:25:42;;;;;;;7.25;2.40;;;14.50;99.90;;;;;;5097599;28;20026;-56
2022/09/10 00:28:08;;;;;;;11.85;2.90;;;14.60;99.90;;;;;;5102995;28;20020;-55
2022/09/10 00:30:39;;;;;;;6.38;2.70;;;14.60;99.90;;;;;;5103362;28;20033;-56
2022/09/10 00:33:05;;;;;;;5.90;2.95;;;14.60;99.90;;;;;;5103031;28;20023;-58
2022/09/10 00:35:32;;;;;;;6.22;2.50;;;14.70;99.90;;;;;;5105849;28;20046;-54
2022/09/10 00:37:58;;;;;;;7.63;2.92;;;14.70;99.90;;;;;;5105326;28;20023;-58
2022/09/10 00:40:24;;;;;;;11.25;2.85;;;14.70;99.90;;;;;;5107065;28;20562;-56
2022/09/10 00:42:49;;;;;;;8.73;2.65;;;14.80;99.90;;;;;;5100872;28;20035;-55
2022/09/10 00:45:18;;;;;;;6.63;3.03;;;14.80;99.90;;;;;;5103387;28;20088;-56
2022/09/10 00:47:46;;;;;;;10.27;3.15;;;14.80;99.90;;;;;;5105687;28;20060;-57
2022/09/10 00:50:24;;;;;;;5.30;2.92;;;14.80;99.90;;;;;;5098920;28;20024;-56
2022/09/10 00:52:59;;;;;;;10.38;3.40;;;14.90;99.90;;;;;;5101022;28;20046;-58
2022/09/10 00:55:26;;;;;;;4.88;2.38;;;14.90;99.90;;;;;;5103525;28;20099;-57
2022/09/10 00:57:55;;;;;;;10.35;2.63;;;14.90;99.90;;;;;;5103763;28;20033;-58
2022/09/10 01:00:20;;;;;;;8.02;2.40;;;14.90;99.90;;;;;;5102406;28;20381;-54
2022/09/10 01:02:47;;;;;;;6.20;1.92;;;15.00;99.90;;;;;;5105789;28;20019;-55
2022/09/10 01:05:13;;;;;;;5.38;2.15;;;15.00;99.90;;;;;;5106919;28;20020;-58
2022/09/10 01:07:39;;;;;;;7.00;1.95;;;15.00;99.90;;;;;;5105019;28;20394;-56
2022/09/10 01:10:10;;;;;;;5.32;2.13;;;15.00;99.90;;;;;;5100515;28;20028;-57
2022/09/10 01:12:58;;;;;;;6.25;1.85;;;14.90;99.90;;;;;;5105992;28;20020;-54
2022/09/10 01:15:47;;;;;;;5.65;1.40;;;15.00;99.90;;;;;;5103965;28;20477;-55
2022/09/10 01:18:34;;;;;;;3.67;1.60;;;15.00;99.90;;;;;;5102664;28;20027;-56
2022/09/10 01:21:27;;;;;;;5.93;1.80;;;15.10;99.90;;;;;;5106422;28;20043;-56
2022/09/10 01:24:23;;;;;;;2.90;1.50;;;15.10;99.90;;;;;;5101464;28;20505;-56
2022/09/10 01:27:10;;;;;;;3.90;1.40;;;15.10;99.90;;;;;;5105770;28;20032;-55
2022/09/10 01:29:44;;;;;;;4.57;1.30;;;15.10;99.90;;;;;;5107050;28;20020;-54
2022/09/10 01:32:14;;;;;;;8.25;1.75;;;15.00;99.90;;;;;;5104608;28;20027;-57
2022/09/10 01:34:46;;;;;;;3.47;1.13;;;15.10;99.90;;;;;;5105979;28;20020;-55
2022/09/10 01:37:23;;;;;;;4.70;1.60;;;15.10;99.90;;;;;;5109370;28;20028;-55
2022/09/10 01:39:51;;;;;;;5.97;1.23;;;15.10;99.90;;;;;;5109931;28;20039;-55
2022/09/10 01:42:17;;;;;;;9.85;1.52;;;15.10;99.90;;;;;;5111281;28;20520;-57
2022/09/10 01:44:47;;;;;;;3.08;1.30;;;15.10;99.90;;;;;;5107159;28;20489;-57
2022/09/10 01:47:25;;;;;;;1.45;1.10;;;15.10;99.90;;;;;;5103466;27;20032;-57
2022/09/10 01:50:18;;;;;;;3.05;1.40;;;15.10;99.90;;;;;;5109480;28;20035;-55
2022/09/10 01:52:44;;;;;;;7.22;1.67;;;15.20;99.90;;;;;;5108715;28;20019;-55
2022/09/10 01:55:26;;;;;;;10.38;1.52;;;15.10;99.90;;;;;;5111375;28;20084;-56
2022/09/10 01:57:59;;;;;;;5.05;1.55;;;15.10;99.90;;;;;;5110210;28;20118;-56
2022/09/10 02:00:25;;;;;;;2.63;1.35;;;15.20;99.90;;;;;;5107701;28;20584;-55
2022/09/10 02:02:57;;;;;;;6.78;1.77;;;15.20;99.90;;;;;;5106770;28;20052;-54
2022/09/10 02:05:25;;;;;;;3.88;1.20;;;15.20;99.90;;;;;;5108831;28;20027;-57
2022/09/10 02:07:54;;;;;;;1.90;1.33;;;15.20;99.90;;;;;;5111751;27;20019;-57
2022/09/10 02:10:20;;;;;;;3.10;1.10;;;15.20;99.90;;;;;;5107380;28;20039;-58
2022/09/10 02:12:46;;;;;;;3.45;1.40;;;15.30;99.90;;;;;;5109512;28;20126;-54
2022/09/10 02:15:12;;;;;;;3.15;1.40;;;15.30;99.90;;;;;;5105360;28;20459;-57
2022/09/10 02:17:39;;;;;;;4.00;1.15;;;15.30;99.90;;;;;;5106392;28;20115;-57
2022/09/10 02:20:09;;;;;;;5.28;1.52;;;15.30;99.90;;;;;;5107711;28;20081;-57
2022/09/10 02:22:35;;;;;;;2.50;1.17;;;15.30;99.90;;;;;;5112685;28;20034;-55
2022/09/10 02:25:02;;;;;;;6.65;1.40;;;15.20;99.90;;;;;;5110224;28;20031;-57
2022/09/10 02:27:28;;;;;;;3.20;1.20;;;15.20;99.90;;;;;;5110949;28;20053;-55
2022/09/10 02:29:55;;;;;;;3.25;1.58;;;15.20;99.90;;;;;;5107385;28;20024;-55
2022/09/10 02:32:21;;;;;;;8.63;1.27;;;15.20;99.90;;;;;;5102634;28;20016;-53
2022/09/10 02:34:47;;;;;;;3.15;1.40;;;15.20;99.90;;;;;;5104479;28;20031;-57
2022/09/10 02:37:12;;;;;;;2.38;1.42;;;15.20;99.90;;;;;;5107855;28;20098;-57
2022/09/10 02:39:38;;;;;;;7.35;1.77;;;15.20;99.90;;;;;;5108016;28;20027;-57
2022/09/10 02:42:05;;;;;;;6.05;1.55;;;15.10;99.90;;;;;;5106893;27;20489;-56
2022/09/10 02:44:30;;;;;;;5.13;1.55;;;15.10;99.90;;;;;;5108972;28;20019;-55
2022/09/10 02:46:57;;;;;;;2.90;1.33;;;15.10;99.90;;;;;;5105595;28;20492;-57
2022/09/10 02:49:23;;;;;;;5.82;1.63;;;15.10;99.90;;;;;;5109377;28;20543;-56
2022/09/10 02:51:53;;;;;;;3.22;1.60;;;15.20;99.90;;;;;;5108163;28;20114;-56
2022/09/10 02:54:18;;;;;;;9.55;1.77;;;15.20;99.90;;;;;;5107918;28;20021;-57
2022/09/10 02:56:44;;;;;;;4.38;1.55;;;15.20;99.90;;;;;;5110574;28;20582;-55
2022/09/10 02:59:10;;;;;;;6.72;1.92;;;15.20;99.90;;;;;;5108890;28;20035;-55
2022/09/10 03:01:37;;;;;;;3.47;1.85;;;15.20;99.90;;;;;;5109187;28;20027;-57
2022/09/10 03:04:03;;;;;;;6.03;1.67;;;15.20;99.90;;;;;;5100866;28;20501;-57
2022/09/10 03:06:28;;;;;;;5.25;1.35;;;15.10;99.90;;;;;;5110704;28;20027;-56
2022/09/10 03:08:56;;;;;;;3.33;1.75;;;15.10;99.90;;;;;;5104826;28;21629;-57
2022/09/10 03:11:23;;;;;;;6.22;1.40;;;15.10;99.90;;;;;;5104077;28;20105;-57
2022/09/10 03:13:49;;;;;;;12.10;1.88;;;15.10;99.90;;;;;;5109806;28;20393;-56
2022/09/10 03:16:17;;;;;;;3.55;1.50;;;15.10;99.90;;;;;;5108234;28;20031;-57
2022/09/10 03:18:43;;;;;;;5.00;1.70;;;15.20;99.90;;;;;;5106022;28;20048;-57
2022/09/10 03:21:13;;;;;;;4.53;1.33;;;15.10;99.90;;;;;;5109579;28;20098;-56
2022/09/10 03:26:14;;;;;;;3.90;1.33;;;15.10;99.90;;;;;;5070516;22;20118;-58
2022/09/10 03:28:43;;;;;;;6.45;1.35;;;15.20;99.90;;;;;;5046929;28;20037;-59
2022/09/10 03:31:09;;;;;;;3.00;1.30;;;15.10;99.90;;;;;;5047146;28;20075;-57
2022/09/10 03:33:36;;;;;;;3.03;1.48;;;15.10;99.90;;;;;;5046196;28;20107;-58
2022/09/10 03:36:02;;;;;;;4.22;1.30;;;15.10;99.90;;;;;;5047031;28;20110;-59
2022/09/10 03:38:28;;;;;;;3.85;0.90;;;15.10;99.90;;;;;;5048507;28;20079;-58
2022/09/10 03:40:54;;;;;;;2.33;1.52;;;15.10;99.90;;;;;;5049926;28;20037;-59
2022/09/10 03:43:21;;;;;;;7.63;1.38;;;15.10;99.90;;;;;;5047992;28;20479;-58
2022/09/10 03:45:48;;;;;;;9.27;1.30;;;15.10;99.90;;;;;;5044934;28;20067;-58
2022/09/10 03:48:15;;;;;;;1.92;1.13;;;15.10;99.90;;;;;;5048800;28;20067;-58
2022/09/10 03:50:42;;;;;;;6.53;1.50;;;15.00;99.90;;;;;;5048351;28;20036;-58
2022/09/10 03:53:12;;;;;;;1.70;1.45;;;15.00;99.90;;;;;;5048775;28;20303;-59
2022/09/10 03:55:37;;;;;;;3.40;1.52;;;15.10;99.90;;;;;;5048490;28;20072;-58
2022/09/10 03:58:05;;;;;;;7.55;1.73;;;15.10;99.90;;;;;;5048737;28;20047;-58
2022/09/10 04:00:31;;;;;;;3.10;1.60;;;15.10;99.90;;;;;;5045648;28;20033;-58
2022/09/10 04:02:57;;;;;;;3.67;1.48;;;15.10;99.90;;;;;;5047871;28;20033;-58
2022/09/10 04:05:24;;;;;;;3.28;1.70;;;15.10;99.90;;;;;;5046664;28;20043;-58
2022/09/10 04:07:50;;;;;;;2.55;1.70;;;15.10;99.90;;;;;;5050257;28;20070;-57
2022/09/10 04:10:16;;;;;;;6.47;1.27;;;15.10;99.90;;;;;;5046114;28;20028;-58
2022/09/10 04:12:42;;;;;;;6.72;1.55;;;15.10;99.90;;;;;;5049164;28;20049;-59
2022/09/10 04:15:07;;;;;;;9.98;1.98;;;15.10;99.90;;;;;;5045216;28;20025;-59
2022/09/10 04:17:33;;;;;;;14.18;3.25;;;15.10;99.90;;;;;;5047278;28;20029;-58
2022/09/10 04:19:59;;;;;;;3.88;2.05;;;15.20;99.90;;;;;;5047652;28;20017;-58
2022/09/10 04:22:24;;;;;;;3.95;2.15;;;15.20;99.90;;;;;;5048550;28;20070;-59
2022/09/10 04:24:50;;;;;;;5.97;2.00;;;15.20;99.90;;;;;;5045364;28;20523;-58
2022/09/10 04:27:15;;;;;;;6.22;2.20;;;15.20;99.90;;;;;;5053403;28;20033;-57
2022/09/10 04:29:41;;;;;;;2.92;1.90;;;15.10;99.90;;;;;;5050851;28;20025;-59
2022/09/10 04:32:08;;;;;;;6.07;2.40;;;15.10;99.90;;;;;;5046668;28;20086;-59
2022/09/10 04:34:33;;;;;;;5.22;2.33;;;15.10;99.90;;;;;;5048223;28;20040;-59
2022/09/10 04:36:59;;;;;;;3.85;1.92;;;15.20;99.90;;;;;;5050649;28;20166;-58
2022/09/10 04:39:24;;;;;;;3.72;1.73;;;15.20;99.90;;;;;;5047552;28;20043;-58
2022/09/10 04:41:50;;;;;;;4.95;2.33;;;15.20;99.90;;;;;;5048519;28;20098;-57
2022/09/10 04:44:19;;;;;;;9.75;2.00;;;15.20;99.90;;;;;;5045697;28;20116;-54
2022/09/10 04:46:46;;;;;;;3.17;1.73;;;15.20;99.90;;;;;;5050064;28;20096;-58
2022/09/10 04:49:12;;;;;;;9.60;2.35;;;15.20;99.90;;;;;;5047857;28;20013;-59
2022/09/10 04:51:38;;;;;;;4.75;1.73;;;15.20;99.90;;;;;;5049222;28;20495;-58
2022/09/10 04:54:04;;;;;;;3.85;2.03;;;15.20;99.90;;;;;;5046868;28;20040;-58
2022/09/10 04:56:30;;;;;;;3.75;1.92;;;15.20;99.90;;;;;;5048470;28;20031;-59
2022/09/10 04:58:56;;;;;;;4.53;1.55;;;15.20;99.90;;;;;;5046183;28;20097;-57
2022/09/10 05:01:22;;;;;;;3.58;1.95;;;15.20;99.90;;;;;;5048458;28;20020;-58
2022/09/10 05:03:47;;;;;;;4.35;1.90;;;15.20;99.90;;;;;;5044092;28;20088;-57
2022/09/10 05:06:13;;;;;;;5.65;2.05;;;15.20;99.90;;;;;;5046653;28;20045;-59
2022/09/10 05:08:39;;;;;;;6.20;3.88;;;15.20;99.90;;;;;;5047697;28;20029;-59
2022/09/10 05:11:05;;;;;;;9.95;1.63;;;15.20;99.90;;;;;;5049840;28;20222;-58
2022/09/10 05:13:30;;;;;;;5.18;2.05;;;15.20;99.90;;;;;;5053793;28;20108;-58
2022/09/10 05:15:57;;;;;;;4.78;1.63;;;15.20;99.90;;;;;;5045113;28;20132;-58
2022/09/10 05:18:25;;;;;;;5.57;2.03;;;15.20;99.90;;;;;;5048673;28;20021;-58
2022/09/10 05:20:51;;;;;;;5.50;1.90;;;15.20;99.90;;;;;;5047691;28;20491;-58
2022/09/10 05:23:16;;;;;;;2.38;1.60;;;15.30;99.90;;;;;;5050954;28;20021;-58
2022/09/10 05:25:43;;;;;;;7.97;1.80;;;15.30;99.90;;;;;;5046485;28;20029;-59
2022/09/10 05:28:09;;;;;;;3.00;1.20;;;15.30;99.90;;;;;;5042573;28;20029;-58
2022/09/10 05:30:35;;;;;;;6.90;1.17;;;15.40;99.90;;;;;;5045890;28;20021;-58
2022/09/10 05:33:01;;;;;;;2.00;1.02;;;15.40;99.90;;;;;;5049824;28;20090;-57
2022/09/10 05:35:28;;;;;;;2.28;0.82;;;15.40;99.90;;;;;;5046609;28;20021;-58
2022/09/10 05:37:56;;;;;;;4.70;1.17;;;15.40;99.90;;;;;;5046553;28;20033;-58
2022/09/10 05:40:21;;;;;;;4.18;1.13;;;15.40;99.90;;;;;;5047009;28;20115;-58
2022/09/10 05:42:48;;;;;;;5.00;1.45;;;15.40;99.90;;;;;;5050321;28;20112;-58
2022/09/10 05:45:14;;;;;;;1.75;1.02;;;15.40;99.90;;;;;;5045989;28;20120;-58
2022/09/10 05:47:39;;;;;;;1.95;1.15;;;15.50;99.90;;;;;;5044077;28;20670;-58
2022/09/10 05:50:05;;;;;;;3.60;1.30;;;15.50;99.90;;;;;;5049585;28;20029;-58
2022/09/10 05:52:31;;;;;;;1.50;1.05;;;15.60;99.90;;;;;;5052977;28;20024;-58
2022/09/10 05:54:58;;;;;;;4.78;1.20;;;15.60;99.90;;;;;;5044731;28;20056;-59
2022/09/10 05:57:23;;;;;;;4.38;1.00;;;15.70;99.90;;;;;;5047966;28;20482;-58
2022/09/10 05:59:49;;;;;;;2.55;0.80;;;15.80;99.90;;;;;;5042916;28;20021;-57
2022/09/10 06:02:16;;;;;;;1.10;1.00;;;15.80;99.90;;;;;;5051193;28;20028;-57
2022/09/10 06:04:42;;;;;;;4.20;1.00;;;15.80;99.90;;;;;;5045675;28;20538;-58
2022/09/10 06:07:07;;;;;;;5.72;1.20;;;15.90;99.90;;;;;;5039245;28;20032;-57
2022/09/10 06:09:33;;;;;;;4.00;1.13;;;15.90;99.90;;;;;;5045231;28;20025;-58
2022/09/10 06:11:59;;;;;;;1.63;0.93;;;15.90;99.90;;;;;;5051914;28;20583;-58
2022/09/10 06:14:25;;;;;;;6.22;1.00;;;15.90;99.90;;;;;;5045356;28;20033;-59
2022/09/10 06:16:52;;;;;;;6.22;1.02;;;15.90;99.90;;;;;;5043056;28;20296;-58
2022/09/10 06:19:18;;;;;;;5.57;1.10;;;15.90;99.90;;;;;;5044376;28;20086;-58
2022/09/10 06:21:45;;;;;;;1.75;1.15;;;15.80;99.90;;;;;;5046751;28;20037;-59
2022/09/10 06:24:12;;;;;;;2.40;1.00;;;15.90;99.90;;;;;;5047391;28;20056;-59
2022/09/10 06:26:37;;;;;;;1.48;1.17;;;16.00;99.90;;;;;;5047831;28;20079;-59
2022/09/10 06:29:04;;;;;;;1.45;0.93;;;16.00;99.90;;;;;;5044412;28;20037;-59
2022/09/10 06:31:29;;;;;;;1.58;1.15;;;16.10;99.90;;;;;;5051078;28;20028;-59
2022/09/10 06:33:55;;;;;;;4.00;1.13;;;16.10;99.90;;;;;;5050126;28;20074;-59
2022/09/10 06:36:20;;;;;;;9.02;0.80;;;16.10;99.90;;;;;;5044255;28;20027;-58
2022/09/10 06:38:48;;;;;;;3.83;1.25;;;16.10;99.90;;;;;;5047304;28;20834;-59
2022/09/10 06:41:15;;;;;;;1.77;1.13;;;16.10;99.90;;;;;;5054485;28;20399;-60
2022/09/10 06:43:41;;;;;;;2.85;1.50;;;16.10;99.90;;;;;;5054949;28;20104;-59
2022/09/10 06:46:13;;;;;;;3.38;1.20;;;16.20;99.90;;;;;;5050371;28;20037;-60
2022/09/10 06:48:40;;;;;;;1.50;0.80;;;16.20;99.90;;;;;;5048701;28;20111;-59
2022/09/10 06:51:09;;;;;;;4.72;0.90;;;16.20;99.90;;;;;;5030008;28;20049;-60
2022/09/10 06:53:35;;;;;;;9.07;2.40;;;16.20;99.90;;;;;;5048271;28;20382;-59
2022/09/10 06:56:04;;;;;;;4.68;1.75;;;16.20;99.90;;;;;;5047610;28;20024;-59
2022/09/10 06:58:31;;;;;;;4.47;1.70;;;16.30;99.90;;;;;;5047972;28;20028;-60
2022/09/10 07:00:56;;;;;;;8.10;1.80;;;16.30;99.90;;;;;;5048782;28;20628;-59
2022/09/10 07:03:22;;;;;;;5.03;2.08;;;16.30;99.90;;;;;;5049535;28;20033;-60
2022/09/10 07:05:48;;;;;;;5.90;2.15;;;16.40;99.90;;;;;;5050726;28;20028;-60
2022/09/10 07:08:19;;;;;;;4.40;1.70;;;16.50;99.90;;;;;;5044189;28;20499;-59
2022/09/10 07:10:45;;;;;;;5.25;1.88;;;16.50;99.90;;;;;;5056388;28;20032;-61
2022/09/10 07:13:11;;;;;;;3.30;1.70;;;16.50;99.90;;;;;;5046954;28;20877;-58
2022/09/10 07:15:48;;;;;;;6.03;1.38;;;16.60;99.90;;;;;;5049292;28;20036;-60
2022/09/10 07:18:13;;;;;;;5.20;1.35;;;16.70;99.90;;;;;;5044783;28;20534;-58
2022/09/10 07:20:43;;;;;;;6.53;1.40;;;16.70;99.90;;;;;;5048622;28;20083;-60
2022/09/10 07:23:14;;;;;;;5.60;1.13;;;16.80;99.90;;;;;;5048285;28;20025;-59
2022/09/10 07:25:40;;;;;;;2.10;1.00;;;16.90;99.90;;;;;;5048088;28;20111;-60
2022/09/10 07:28:11;;;;;;;1.55;0.98;;;16.90;99.90;;;;;;5047900;28;20083;-59
2022/09/10 07:30:38;;;;;;;1.92;0.98;;;17.00;99.90;;;;;;5049838;28;20063;-58
2022/09/10 07:33:04;;;;;;;2.63;1.20;;;17.00;99.90;;;;;;5048613;28;20128;-59
2022/09/10 07:35:32;;;;;;;5.57;1.10;;;17.00;99.90;;;;;;5049886;28;20451;-58
2022/09/10 07:37:59;;;;;;;2.03;0.77;;;17.00;99.90;;;;;;5043690;28;20021;-58
2022/09/10 07:40:26;;;;;;;4.82;1.25;;;17.00;99.90;;;;;;5050673;28;20048;-57
2022/09/10 07:42:54;;;;;;;2.70;1.20;;;17.00;99.90;;;;;;5054889;28;20017;-58
2022/09/10 07:45:20;;;;;;;8.73;1.17;;;17.10;99.90;;;;;;5052728;28;20104;-57
2022/09/10 07:47:49;;;;;;;4.05;1.20;;;17.10;99.90;;;;;;5052394;28;20096;-58
2022/09/10 07:50:14;;;;;;;4.43;1.05;;;17.10;99.90;;;;;;5048414;28;20379;-58
2022/09/10 07:52:40;;;;;;;6.05;1.40;;;17.20;99.90;;;;;;5046857;28;20018;-57
2022/09/10 07:55:06;;;;;;;3.83;1.45;;;17.30;99.90;;;;;;5048964;28;20498;-58
2022/09/10 07:57:36;;;;;;;3.03;1.67;;;17.30;99.90;;;;;;5046774;28;20086;-58
2022/09/10 08:00:05;;;;;;;2.00;1.13;;;17.40;99.90;;;;;;5048992;28;20039;-60
2022/09/10 08:02:30;;;;;;;4.32;1.10;;;17.50;99.90;;;;;;5047114;28;20027;-62
2022/09/10 08:04:56;;;;;;;3.65;1.17;;;17.60;99.90;;;;;;5047740;28;20423;-62
2022/09/10 08:07:22;;;;;;;7.88;1.88;;;17.60;99.90;;;;;;5044764;28;20025;-62
2022/09/10 08:09:47;;;;;;;4.53;1.20;;;17.60;99.90;;;;;;5049258;28;20040;-61
2022/09/10 08:12:13;;;;;;;2.67;0.93;;;17.60;99.90;;;;;;5045725;28;20583;-61
2022/09/10 08:14:39;;;;;;;2.50;1.45;;;17.60;99.90;;;;;;5048653;28;20029;-61
2022/09/10 08:17:04;;;;;;;2.53;1.10;;;17.60;99.90;;;;;;5043004;28;20082;-61
2022/09/10 08:19:30;;;;;;;5.40;1.20;;;17.60;99.90;;;;;;5047647;28;20025;-61
2022/09/10 08:21:56;;;;;;;6.15;1.23;;;17.60;99.90;;;;;;5046120;28;20037;-61
2022/09/10 08:24:21;;;;;;;4.32;1.10;;;17.50;99.90;;;;;;5047357;28;20107;-60
2022/09/10 08:26:48;;;;;;;6.72;1.20;;;17.50;99.90;;;;;;5045780;28;20107;-60
2022/09/10 08:29:13;;;;;;;1.75;1.10;;;17.50;99.90;;;;;;5046460;28;20017;-60
2022/09/10 08:31:40;;;;;;;4.25;1.13;;;17.50;99.90;;;;;;5046557;28;20025;-60
2022/09/10 08:34:07;;;;;;;3.35;1.13;;;17.50;99.90;;;;;;5045747;28;20037;-62
2022/09/10 08:36:32;;;;;;;2.25;1.10;;;17.60;99.90;;;;;;5046318;28;20689;-61
2022/09/10 08:38:58;;;;;;;2.95;1.15;;;17.60;99.90;;;;;;5048142;28;20154;-61
2022/09/10 08:41:40;;;;;;;10.05;1.60;;;17.60;99.90;;;;;;5050265;28;20029;-61
2022/09/10 08:44:08;;;;;;;5.05;1.52;;;17.60;99.90;;;;;;5049814;28;20025;-62
2022/09/10 08:46:44;;;;;;;5.90;1.65;;;17.60;99.90;;;;;;5045082;28;20861;-61
2022/09/10 08:49:21;;;;;;;8.20;2.10;;;17.70;99.90;;;;;;5045820;28;20475;-63
2022/09/10 08:51:55;;;;;;;4.10;1.25;;;17.70;99.90;;;;;;5045366;28;20041;-59
2022/09/10 08:54:25;;;;;;;8.70;1.67;;;17.80;99.90;;;;;;5048923;28;20028;-61
2022/09/10 08:56:56;;;;;;;8.13;2.60;;;17.90;99.90;;;;;;5049967;28;21311;-61
2022/09/10 08:59:33;;;;;;;14.30;3.13;;;17.90;99.90;;;;;;5047657;28;20028;-61
2022/09/10 09:02:14;;;;;;;6.40;2.05;;;18.10;99.90;;;;;;5047978;28;20367;-61
2022/09/10 09:04:55;;;;;;;5.78;2.08;;;18.10;99.90;;;;;;5051542;28;20033;-61
2022/09/10 09:07:20;;;;;;;4.72;2.10;;;18.20;99.90;;;;;;5047065;28;20024;-62
2022/09/10 09:09:50;;;;;;;5.45;2.15;;;18.20;99.90;;;;;;5049852;28;20025;-62
2022/09/10 09:12:46;;;;;;;3.63;2.05;;;18.30;99.90;;;;;;5046708;28;20041;-55
2022/09/10 09:15:16;;;;;;;4.60;1.90;;;18.30;99.90;;;;;;5042547;28;21959;-61
2022/09/10 09:18:03;;;;;;;6.75;2.22;;;18.30;99.90;;;;;;5047081;28;20028;-61
2022/09/10 09:20:45;;;;;;;5.35;2.25;;;18.40;99.90;;;;;;5050967;28;20546;-61
2022/09/10 09:23:14;;;;;;;6.20;1.92;;;18.30;99.90;;;;;;5052456;28;20116;-62
2022/09/10 09:25:45;;;;;;;6.65;2.08;;;18.40;99.90;;;;;;5047316;28;20033;-60
2022/09/10 09:28:20;;;;;;;8.57;2.42;;;18.40;99.90;;;;;;5044810;28;20510;-60
2022/09/10 09:30:48;;;;;;;14.43;2.83;;;18.30;99.90;;;;;;5048421;28;20063;-60
2022/09/10 09:33:17;;;;;;;9.70;2.78;;;18.30;99.90;;;;;;5047246;28;20495;-60
2022/09/10 09:36:03;;;;;;;6.80;2.83;;;18.30;99.90;;;;;;5046262;28;20147;-60
2022/09/10 09:38:37;;;;;;;7.32;1.95;;;18.20;99.90;;;;;;5044055;28;20029;-61
2022/09/10 09:41:14;;;;;;;5.70;2.53;;;18.30;99.90;;;;;;5046985;28;20025;-60
2022/09/10 09:43:58;;;;;;;5.10;2.33;;;18.20;99.90;;;;;;5045699;28;20036;-60
2022/09/10 09:46:24;;;;;;;7.88;2.70;;;18.20;99.90;;;;;;5043151;28;20032;-60
2022/09/10 09:48:54;;;;;;;5.38;2.20;;;18.10;99.90;;;;;;5042553;28;20486;-60
2022/09/10 09:51:21;;;;;;;5.28;3.22;;;18.10;99.90;;;;;;5047808;28;20425;-57
2022/09/10 09:53:49;;;;;;;14.23;3.05;;;18.10;99.90;;;;;;5047271;28;20101;-60
2022/09/10 09:56:23;;;;;;;8.13;3.30;;;18.00;99.90;;;;;;5044623;28;20461;-60
2022/09/10 09:58:49;;;;;;;;;;;17.90;99.90;;;;;;5047885;28;20021;-59
2022/09/10 10:01:25;;;;;;;9.50;3.47;;;17.80;99.90;;;;;;5051943;28;19912;-61
2022/09/10 10:03:57;;;;;;;4.68;2.60;;;17.80;99.90;;;;;;5047047;28;20029;-61
2022/09/10 10:06:51;;;;;;;9.07;3.13;;;17.80;99.90;;;;;;5047462;28;20107;-60
2022/09/10 10:09:20;;;;;;;3.93;3.23;;;17.80;99.90;;;;;;5045744;28;20123;-61
2022/09/10 10:11:52;;;;;;;8.27;3.00;;;17.80;99.90;;;;;;5052791;28;20324;-60
2022/09/10 10:14:18;;;;;;;12.55;3.55;;;17.80;99.90;;;;;;5048990;28;20057;-60
2022/09/10 10:16:50;;;;;;;9.65;3.80;;;17.80;99.90;;;;;;5046706;28;20084;-60
2022/09/10 10:19:34;;;;;;;7.18;3.35;;;17.80;99.90;;;;;;5050896;28;20560;-61
2022/09/10 10:22:18;;;;;;;5.13;2.70;;;17.90;99.90;;;;;;5045293;28;20467;-60
2022/09/10 10:24:45;;;;;;;8.77;3.58;;;17.90;99.90;;;;;;5051578;28;20530;-60
2022/09/10 10:27:25;;;;;;;6.30;3.70;;;17.90;99.90;;;;;;5047976;28;20029;-59
2022/09/10 10:29:59;;;;;;;9.25;3.95;;;17.90;99.90;;;;;;5049239;28;20041;-60
2022/09/10 10:32:37;;;;;;;7.00;3.20;;;17.90;99.90;;;;;;5046975;28;20053;-61
2022/09/10 10:35:17;;;;;;;10.20;3.40;;;17.90;99.90;;;;;;5046402;28;20324;-58
2022/09/10 10:38:12;;;;;;;3.35;2.50;;;17.80;99.90;;;;;;5033453;28;20516;-61
2022/09/10 10:41:15;;;;;;;7.45;2.97;;;17.80;99.90;;;;;;5046569;28;20111;-61
2022/09/10 10:44:18;;;;;;;7.72;3.58;;;17.80;99.90;;;;;;5040502;28;20032;-60
2022/09/10 10:46:52;;;;;;;9.38;3.25;;;17.90;99.90;;;;;;5046775;28;20025;-61
2022/09/10 10:50:02;;;;;;;2.58;2.38;;;17.90;99.90;;;;;;5046062;28;20033;-58
2022/09/10 10:52:37;;;;;;;6.88;2.88;;;18.00;99.90;;;;;;5022437;28;20498;-60
2022/09/10 10:55:17;;;;;;;3.75;1.70;;;18.00;99.90;;;;;;5047037;28;20159;-61
2022/09/10 10:58:36;;;;;;;5.20;2.15;;;18.00;99.90;;;;;;5049046;28;20040;-60
2022/09/10 11:01:04;;;;;;;3.92;2.42;;;18.10;99.90;;;;;;4963908;28;20052;-61
2022/09/10 11:03:51;;;;;;;7.57;2.38;;;18.20;99.90;;;;;;5046653;28;20025;-59
2022/09/10 11:06:23;;;;;;;3.92;2.25;;;18.20;99.90;;;;;;5048406;28;20426;-61
2022/09/10 11:09:05;;;;;;;6.05;2.17;;;18.20;99.90;;;;;;5044023;28;20108;-61
2022/09/10 11:11:57;;;;;;;5.18;2.45;;;18.20;99.90;;;;;;5050557;28;20035;-61
2022/09/10 11:14:36;;;;;;;5.68;2.30;;;18.20;99.90;;;;;;5047420;28;20113;-61
2022/09/10 11:17:09;;;;;;;7.28;1.95;;;18.10;99.90;;;;;;5050771;28;20040;-61
2022/09/10 11:19:43;;;;;;;8.75;2.20;;;18.10;99.90;;;;;;5050990;28;20483;-59
2022/09/10 11:22:20;;;;;;;6.88;1.52;;;18.10;99.90;;;;;;5046461;28;20083;-60
2022/09/10 11:25:06;;;;;;;4.15;2.30;;;18.10;99.90;;;;;;5044171;28;20036;-61
2022/09/10 11:27:38;;;;;;;4.03;2.38;;;18.00;99.90;;;;;;5046620;28;20016;-62
2022/09/10 11:30:15;;;;;;;4.35;2.78;;;17.80;99.90;;;;;;5045674;28;20063;-62
2022/09/10 11:33:03;;;;;;;10.02;3.20;;;17.60;99.90;;;;;;5048686;28;20700;-61
2022/09/10 11:35:52;;;;;;;6.63;2.55;;;17.60;99.90;;;;;;5050857;28;20036;-61
2022/09/10 11:38:23;;;;;;;5.18;2.90;;;17.50;99.90;;;;;;5043982;28;20029;-62
2022/09/10 11:40:57;;;;;;;12.07;3.10;;;17.40;99.90;;;;;;5047602;28;20025;-60
2022/09/10 11:43:32;;;;;;;6.18;3.15;;;17.50;99.90;;;;;;5046468;28;20021;-61
2022/09/10 11:46:03;;;;;;;4.68;2.88;;;17.50;99.90;;;;;;5043038;28;20028;-61
2022/09/10 11:48:47;;;;;;;7.03;2.65;;;17.60;99.90;;;;;;5047058;28;20032;-62
2022/09/10 11:51:32;;;;;;;5.93;2.92;;;17.70;99.90;;;;;;5045856;28;20045;-60
2022/09/10 11:54:01;;;;;;;7.22;3.00;;;17.80;99.90;;;;;;5047022;28;20214;-61
2022/09/10 11:56:45;;;;;;;5.40;2.90;;;17.80;99.90;;;;;;5049500;28;20090;-61
2022/09/10 11:59:55;;;;;;;4.60;3.07;;;17.90;99.90;;;;;;5048178;28;20501;-61
2022/09/10 12:03:01;;;;;;;6.13;3.53;;;17.80;99.90;;;;;;5032017;28;20670;-61
2022/09/10 12:05:34;;;;;;;9.77;3.60;;;17.80;99.90;;;;;;5043598;28;20021;-61
2022/09/10 12:08:17;;;;;;;5.00;3.13;;;17.60;99.90;;;;;;5049700;28;20071;-60
2022/09/10 12:11:04;;;;;;;5.80;3.63;;;17.60;99.90;;;;;;5048899;28;20510;-61
2022/09/10 12:13:32;;;;;;;8.80;4.25;;;17.60;99.90;;;;;;5048100;28;20078;-61
2022/09/10 12:16:03;;;;;;;6.25;3.72;;;17.70;99.90;;;;;;5044405;28;20028;-61
2022/09/10 12:18:38;;;;;;;7.50;3.75;;;17.70;99.90;;;;;;5044522;28;20056;-61
2022/09/10 12:21:28;;;;;;;10.13;3.92;;;17.70;99.90;;;;;;5046845;28;20029;-61
2022/09/10 12:23:55;;;;;;;13.77;5.00;;;17.80;99.90;;;;;;5046828;28;20029;-61
2022/09/10 12:26:21;;;;;;;6.13;4.03;;;17.90;99.90;;;;;;5048245;28;20921;-61
2022/09/10 12:28:48;;;;;;;10.73;4.35;;;17.90;99.90;;;;;;5048402;28;20078;-61
2022/09/10 12:31:15;;;;;;;8.13;4.07;;;17.90;99.90;;;;;;5043975;28;20439;-61
2022/09/10 12:33:43;;;;;;;8.25;4.20;;;18.00;99.90;;;;;;5046449;28;20526;-61
2022/09/10 12:36:10;;;;;;;6.60;4.38;;;18.00;99.90;;;;;;5042889;28;20086;-61
2022/09/10 12:39:17;;;;;;;6.32;3.95;;;18.10;99.90;;;;;;5043761;28;20439;-60
2022/09/10 12:41:42;;;;;;;5.07;3.78;;;18.30;99.90;;;;;;5038366;28;20086;-61
2022/09/10 12:44:35;;;;;;;10.43;4.07;;;18.60;99.90;;;;;;5042946;28;20029;-59
2022/09/10 12:47:15;;;;;;;6.75;3.90;;;18.70;99.90;;;;;;5040490;28;20586;-61
2022/09/10 12:49:51;;;;;;;11.35;4.65;;;18.80;99.90;;;;;;5042201;28;20025;-61
2022/09/10 12:52:34;;;;;;;9.38;5.03;;;18.90;99.90;;;;;;5045235;28;20025;-62
2022/09/10 12:55:26;;;;;;;9.40;5.80;;;18.70;99.90;;;;;;5041687;28;20032;-59
2022/09/10 12:57:58;;;;;;;10.48;5.70;;;18.50;99.90;;;;;;5040329;28;20108;-59
2022/09/10 13:00:27;;;;;;;10.52;7.25;;;18.20;99.90;;;;;;5044778;28;20028;-56
2022/09/10 13:03:07;;;;;;;11.90;7.30;;;18.00;99.90;;;;;;5047991;28;20024;-59
2022/09/10 13:05:53;;;;;;;15.27;7.50;;;17.80;99.90;;;;;;5029416;28;20930;-59
2022/09/10 13:08:32;;;;;;;18.00;9.43;;;17.70;99.90;;;;;;5051307;28;20085;-61